FredonyerEastRWIS Atmospheric Data: 07/14/2020 Summary  Detailed Graphs  Station List

  Temperature     Wind Precipitation Visibility
Timestamp Air Wet
Bulb
Dew-
point
24-hr
Max
24-hr
Min
Relative
Humidity
Atmospheric
Pressure
Avg
Speed
Avg
Dir
Spot
Speed
Spot
Dir
Max
Speed
Max
Dir
  Rate Situation Start End 1 hr 3 hr 6 hr 12 hr 24 hr   Situation
Date Time °F °F °F °F °F % in Hg mph ° mph ° mph ° Y/N in/hr text Date Time Date Time in in in in in mi text
07/14/2020 12:08 AM 56.66 44.78 30.02 86.18 46.94 35.0 Not Reported 0.00 N 0.00 NW 0.89 NW No 0.000 No Precipitation 06/15/2020 07:16 PM 06/15/2020 07:21 PM 0.000 0.000 0.000 0.000 0.000 Not Reported Not Reported
07/14/2020 12:23 AM 55.94 44.06 29.12 86.18 46.94 35.0 Not Reported 0.00 W 0.22 W 1.79 NW No 0.000 No Precipitation 06/15/2020 07:16 PM 06/15/2020 07:21 PM 0.000 0.000 0.000 0.000 0.000 Not Reported Not Reported
07/14/2020 12:38 AM 55.04 43.70 29.30 86.18 46.94 36.0 Not Reported 0.00 N 0.00 SE 0.00 N No 0.000 No Precipitation 06/15/2020 07:16 PM 06/15/2020 07:21 PM 0.000 0.000 0.000 0.000 0.000 Not Reported Not Reported
07/14/2020 12:53 AM 54.86 43.34 28.58 86.18 46.94 36.0 Not Reported 1.12 NW 1.12 N 1.34 NW No 0.000 No Precipitation 06/15/2020 07:16 PM 06/15/2020 07:21 PM 0.000 0.000 0.000 0.000 0.000 Not Reported Not Reported
07/14/2020 01:08 AM 54.32 43.34 29.12 86.18 46.94 37.0 Not Reported 0.00 N 0.00 S 0.00 S No 0.000 No Precipitation 06/15/2020 07:16 PM 06/15/2020 07:21 PM 0.000 0.000 0.000 0.000 0.000 Not Reported Not Reported
07/14/2020 01:23 AM 53.42 42.98 29.30 86.18 46.94 38.0 Not Reported 0.00 N 0.00 N 0.89 N No 0.000 No Precipitation 06/15/2020 07:16 PM 06/15/2020 07:21 PM 0.000 0.000 0.000 0.000 0.000 Not Reported Not Reported
07/14/2020 01:38 AM 53.06 42.26 27.50 86.18 46.94 36.0 Not Reported 1.34 NW 1.12 NW 1.57 NW No 0.000 No Precipitation 06/15/2020 07:16 PM 06/15/2020 07:21 PM 0.000 0.000 0.000 0.000 0.000 Not Reported Not Reported
07/14/2020 01:53 AM 53.06 42.26 27.50 86.18 46.94 36.0 Not Reported 0.00 S 0.45 S 0.89 S No 0.000 No Precipitation 06/15/2020 07:16 PM 06/15/2020 07:21 PM 0.000 0.000 0.000 0.000 0.000 Not Reported Not Reported
07/14/2020 02:08 AM 52.16 41.90 28.40 86.18 46.94 39.0 Not Reported 0.00 N 0.00 NW 1.12 NW No 0.000 No Precipitation 06/15/2020 07:16 PM 06/15/2020 07:21 PM 0.000 0.000 0.000 0.000 0.000 Not Reported Not Reported
07/14/2020 02:23 AM 51.80 41.72 28.22 86.18 46.94 39.0 Not Reported 1.12 NW 1.34 NW 2.01 NW No 0.000 No Precipitation 06/15/2020 07:16 PM 06/15/2020 07:21 PM 0.000 0.000 0.000 0.000 0.000 Not Reported Not Reported
07/14/2020 02:38 AM 52.88 42.44 29.12 86.18 46.94 39.0 Not Reported 0.67 NW 0.67 NW 1.34 NW No 0.000 No Precipitation 06/15/2020 07:16 PM 06/15/2020 07:21 PM 0.000 0.000 0.000 0.000 0.000 Not Reported Not Reported
07/14/2020 02:53 AM 53.60 42.98 29.66 86.18 46.94 39.0 Not Reported 0.00 N 0.00 NW 1.34 N No 0.000 No Precipitation 06/15/2020 07:16 PM 06/15/2020 07:21 PM 0.000 0.000 0.000 0.000 0.000 Not Reported Not Reported
07/14/2020 03:08 AM 52.52 42.26 28.94 86.18 46.94 39.0 Not Reported 1.12 NW 0.89 NW 1.57 NW No 0.000 No Precipitation 06/15/2020 07:16 PM 06/15/2020 07:21 PM 0.000 0.000 0.000 0.000 0.000 Not Reported Not Reported
07/14/2020 03:23 AM 51.80 42.08 29.48 86.18 46.94 41.0 Not Reported 0.00 N 0.00 S 0.00 S No 0.000 No Precipitation 06/15/2020 07:16 PM 06/15/2020 07:21 PM 0.000 0.000 0.000 0.000 0.000 Not Reported Not Reported
07/14/2020 03:38 AM 51.26 41.72 29.30 86.18 46.94 42.0 Not Reported 1.57 NW 1.34 NW 2.01 NW No 0.000 No Precipitation 06/15/2020 07:16 PM 06/15/2020 07:21 PM 0.000 0.000 0.000 0.000 0.000 Not Reported Not Reported
07/14/2020 03:53 AM 51.26 41.90 29.48 86.18 46.94 42.0 Not Reported 0.89 NW 0.00 NW 1.34 NW No 0.000 No Precipitation 06/15/2020 07:16 PM 06/15/2020 07:21 PM 0.000 0.000 0.000 0.000 0.000 Not Reported Not Reported
07/14/2020 04:08 AM 52.88 42.80 30.20 86.18 46.94 41.0 Not Reported 0.67 E 0.00 SE 1.57 SE No 0.000 No Precipitation 06/15/2020 07:16 PM 06/15/2020 07:21 PM 0.000 0.000 0.000 0.000 0.000 Not Reported Not Reported
07/14/2020 04:23 AM 51.44 42.44 30.92 86.18 46.94 44.0 Not Reported 0.00 NW 0.89 SW 0.89 W No 0.000 No Precipitation 06/15/2020 07:16 PM 06/15/2020 07:21 PM 0.000 0.000 0.000 0.000 0.000 Not Reported Not Reported
07/14/2020 04:38 AM 50.54 42.08 31.28 86.18 46.94 46.0 Not Reported 1.12 NW 1.12 W 2.68 NW No 0.000 No Precipitation 06/15/2020 07:16 PM 06/15/2020 07:21 PM 0.000 0.000 0.000 0.000 0.000 Not Reported Not Reported
07/14/2020 04:53 AM 50.18 42.08 31.82 86.18 46.94 48.0 Not Reported 0.45 NW 0.45 NW 1.34 SE No 0.000 No Precipitation 06/15/2020 07:16 PM 06/15/2020 07:21 PM 0.000 0.000 0.000 0.000 0.000 Not Reported Not Reported
07/14/2020 05:09 AM 50.36 42.26 32.00 86.18 46.94 48.0 Not Reported 0.67 NE 0.00 NE 2.24 NE No 0.000 No Precipitation 06/15/2020 07:16 PM 06/15/2020 07:21 PM 0.000 0.000 0.000 0.000 0.000 Not Reported Not Reported
07/14/2020 05:23 AM 49.64 42.26 32.90 86.18 46.94 52.0 Not Reported 0.00 N 0.00 W 0.67 S No 0.000 No Precipitation 06/15/2020 07:16 PM 06/15/2020 07:21 PM 0.000 0.000 0.000 0.000 0.000 Not Reported Not Reported
07/14/2020 05:38 AM 49.64 42.44 33.80 86.18 46.94 54.0 Not Reported 0.22 NW 0.00 NW 1.12 NE No 0.000 No Precipitation 06/15/2020 07:16 PM 06/15/2020 07:21 PM 0.000 0.000 0.000 0.000 0.000 Not Reported Not Reported
07/14/2020 05:53 AM 49.82 42.44 33.44 86.18 46.94 53.0 Not Reported 0.00 N 0.00 S 1.12 NE No 0.000 No Precipitation 06/15/2020 07:16 PM 06/15/2020 07:21 PM 0.000 0.000 0.000 0.000 0.000 Not Reported Not Reported
07/14/2020 06:08 AM 49.28 42.26 33.80 86.18 46.94 55.0 Not Reported 0.00 N 0.22 NW 0.22 NW No 0.000 No Precipitation 06/15/2020 07:16 PM 06/15/2020 07:21 PM 0.000 0.000 0.000 0.000 0.000 Not Reported Not Reported
07/14/2020 06:23 AM 49.64 42.80 34.52 86.18 46.94 55.0 Not Reported 0.00 N 0.00 NW 0.00 N No 0.000 No Precipitation 06/15/2020 07:16 PM 06/15/2020 07:21 PM 0.000 0.000 0.000 0.000 0.000 Not Reported Not Reported
07/14/2020 06:38 AM 50.36 43.52 35.96 86.18 47.48 57.0 Not Reported 0.00 N 0.00 N 0.89 NW No 0.000 No Precipitation 06/15/2020 07:16 PM 06/15/2020 07:21 PM 0.000 0.000 0.000 0.000 0.000 Not Reported Not Reported
07/14/2020 06:53 AM 51.08 44.06 36.32 86.18 48.56 56.0 Not Reported 0.00 N 0.00 W 0.00 W No 0.000 No Precipitation 06/15/2020 07:16 PM 06/15/2020 07:21 PM 0.000 0.000 0.000 0.000 0.000 Not Reported Not Reported
07/14/2020 07:09 AM 53.60 45.32 36.50 86.18 49.28 52.0 Not Reported 0.00 N 0.00 E 0.45 E No 0.000 No Precipitation 06/15/2020 07:16 PM 06/15/2020 07:21 PM 0.000 0.000 0.000 0.000 0.000 Not Reported Not Reported
07/14/2020 07:23 AM 55.58 46.94 38.12 86.18 49.28 51.0 Not Reported 0.00 SE 0.45 SE 0.45 SE No 0.000 No Precipitation 06/15/2020 07:16 PM 06/15/2020 07:21 PM 0.000 0.000 0.000 0.000 0.000 Not Reported Not Reported
07/14/2020 07:38 AM 60.44 49.46 38.48 86.18 49.28 43.0 Not Reported 0.00 N 0.00 SE 0.00 N No 0.000 No Precipitation 06/15/2020 07:16 PM 06/15/2020 07:21 PM 0.000 0.000 0.000 0.000 0.000 Not Reported Not Reported
07/14/2020 07:53 AM 61.34 50.00 38.66 86.18 49.28 42.0 Not Reported 2.01 S 1.79 SE 2.46 SE No 0.000 No Precipitation 06/15/2020 07:16 PM 06/15/2020 07:21 PM 0.000 0.000 0.000 0.000 0.000 Not Reported Not Reported
07/14/2020 08:08 AM 65.30 51.80 39.20 86.18 49.28 38.0 Not Reported 1.12 S 1.34 SE 1.34 SE No 0.000 No Precipitation 06/15/2020 07:16 PM 06/15/2020 07:21 PM 0.000 0.000 0.000 0.000 0.000 Not Reported Not Reported
07/14/2020 08:23 AM 65.84 51.62 37.76 86.18 49.28 35.0 Not Reported 1.57 S 1.34 SE 2.01 S No 0.000 No Precipitation 06/15/2020 07:16 PM 06/15/2020 07:21 PM 0.000 0.000 0.000 0.000 0.000 Not Reported Not Reported
07/14/2020 08:38 AM 69.80 53.06 37.22 86.18 49.28 30.0 Not Reported 1.12 N 1.79 N 2.46 NE No 0.000 No Precipitation 06/15/2020 07:16 PM 06/15/2020 07:21 PM 0.000 0.000 0.000 0.000 0.000 Not Reported Not Reported
07/14/2020 08:53 AM 71.42 53.78 37.04 86.18 49.28 28.0 Not Reported 1.79 E 2.01 N 3.80 NE No 0.000 No Precipitation 06/15/2020 07:16 PM 06/15/2020 07:21 PM 0.000 0.000 0.000 0.000 0.000 Not Reported Not Reported
07/14/2020 09:08 AM 72.50 54.14 36.86 86.18 49.28 27.0 Not Reported 2.46 NE 2.24 E 6.04 E No 0.000 No Precipitation 06/15/2020 07:16 PM 06/15/2020 07:21 PM 0.000 0.000 0.000 0.000 0.000 Not Reported Not Reported
07/14/2020 09:23 AM 73.94 54.86 37.04 86.18 49.28 26.0 Not Reported 2.01 NE 2.24 E 3.58 NE No 0.000 No Precipitation 06/15/2020 07:16 PM 06/15/2020 07:21 PM 0.000 0.000 0.000 0.000 0.000 Not Reported Not Reported
07/14/2020 09:38 AM 74.48 55.04 37.04 86.18 49.28 25.0 Not Reported 2.24 NE 1.34 SE 5.37 E No 0.000 No Precipitation 06/15/2020 07:16 PM 06/15/2020 07:21 PM 0.000 0.000 0.000 0.000 0.000 Not Reported Not Reported
07/14/2020 09:53 AM 74.84 55.04 36.86 86.18 49.28 25.0 Not Reported 2.46 NE 2.24 S 3.80 NE No 0.000 No Precipitation 06/15/2020 07:16 PM 06/15/2020 07:21 PM 0.000 0.000 0.000 0.000 0.000 Not Reported Not Reported
07/14/2020 10:08 AM 75.92 55.22 35.78 86.18 49.28 23.0 Not Reported 3.80 NE 0.89 SE 4.92 NE No 0.000 No Precipitation 06/15/2020 07:16 PM 06/15/2020 07:21 PM 0.000 0.000 0.000 0.000 0.000 Not Reported Not Reported
07/14/2020 10:23 AM 75.92 55.22 35.78 86.18 49.28 23.0 Not Reported 2.46 SE 5.59 S 5.59 S No 0.000 No Precipitation 06/15/2020 07:16 PM 06/15/2020 07:21 PM 0.000 0.000 0.000 0.000 0.000 Not Reported Not Reported
07/14/2020 10:38 AM 78.26 55.94 35.06 86.18 49.28 20.0 Not Reported 2.46 SE 4.92 S 4.92 NE No 0.000 No Precipitation 06/15/2020 07:16 PM 06/15/2020 07:21 PM 0.000 0.000 0.000 0.000 0.000 Not Reported Not Reported
07/14/2020 10:53 AM 78.26 55.76 34.16 86.18 49.28 20.0 Not Reported 2.24 N 1.34 NE 6.93 SE No 0.000 No Precipitation 06/15/2020 07:16 PM 06/15/2020 07:21 PM 0.000 0.000 0.000 0.000 0.000 Not Reported Not Reported
07/14/2020 11:23 AM 78.80 55.76 33.26 86.18 49.28 19.0 Not Reported 1.12 NE 2.68 E 7.38 SE No 0.000 No Precipitation 06/15/2020 07:16 PM 06/15/2020 07:21 PM 0.000 0.000 0.000 0.000 0.000 Not Reported Not Reported
07/14/2020 11:38 AM 80.24 56.12 32.72 86.18 49.28 17.0 Not Reported 3.80 NE 4.47 E 6.93 SE No 0.000 No Precipitation 06/15/2020 07:16 PM 06/15/2020 07:21 PM 0.000 0.000 0.000 0.000 0.000 Not Reported Not Reported
07/14/2020 11:53 AM 79.52 55.94 32.90 86.18 49.28 18.0 Not Reported 2.68 W 4.47 N 4.70 N No 0.000 No Precipitation 06/15/2020 07:16 PM 06/15/2020 07:21 PM 0.000 0.000 0.000 0.000 0.000 Not Reported Not Reported
07/14/2020 12:08 PM 80.42 56.12 32.54 86.18 49.28 17.0 Not Reported 3.36 SW 3.58 W 7.38 SW No 0.000 No Precipitation 06/15/2020 07:16 PM 06/15/2020 07:21 PM 0.000 0.000 0.000 0.000 0.000 Not Reported Not Reported
07/14/2020 12:23 PM 83.84 57.56 32.36 86.18 49.28 15.0 Not Reported 1.57 N 3.36 NE 4.92 SE No 0.000 No Precipitation 06/15/2020 07:16 PM 06/15/2020 07:21 PM 0.000 0.000 0.000 0.000 0.000 Not Reported Not Reported
07/14/2020 12:38 PM 82.22 57.38 34.16 86.18 49.28 17.0 Not Reported 1.79 E 1.79 SE 6.93 SE No 0.000 No Precipitation 06/15/2020 07:16 PM 06/15/2020 07:21 PM 0.000 0.000 0.000 0.000 0.000 Not Reported Not Reported
07/14/2020 12:53 PM 82.04 57.02 33.44 86.18 49.28 17.0 Not Reported 3.80 S 4.47 S 5.37 SW No 0.000 No Precipitation 06/15/2020 07:16 PM 06/15/2020 07:21 PM 0.000 0.000 0.000 0.000 0.000 Not Reported Not Reported
07/14/2020 01:09 PM 83.30 57.20 32.72 86.18 49.28 16.0 Not Reported 4.03 E 2.24 S 6.49 SE No 0.000 No Precipitation 06/15/2020 07:16 PM 06/15/2020 07:21 PM 0.000 0.000 0.000 0.000 0.000 Not Reported Not Reported
07/14/2020 01:23 PM 83.84 57.74 33.80 86.36 49.28 16.0 Not Reported 3.36 SE 8.50 S 9.62 SE No 0.000 No Precipitation 06/15/2020 07:16 PM 06/15/2020 07:21 PM 0.000 0.000 0.000 0.000 0.000 Not Reported Not Reported
07/14/2020 01:38 PM 82.22 57.02 33.26 86.36 49.28 17.0 Not Reported 4.92 SE 5.14 SE 6.49 SE No 0.000 No Precipitation 06/15/2020 07:16 PM 06/15/2020 07:21 PM 0.000 0.000 0.000 0.000 0.000 Not Reported Not Reported
07/14/2020 01:53 PM 85.10 58.28 33.62 86.54 49.28 15.0 Not Reported 3.58 E 4.03 SE 6.04 S No 0.000 No Precipitation 06/15/2020 07:16 PM 06/15/2020 07:21 PM 0.000 0.000 0.000 0.000 0.000 Not Reported Not Reported
07/14/2020 02:09 PM 86.90 59.00 34.34 86.90 49.28 14.0 Not Reported 2.68 SE 3.80 S 6.49 NW No 0.000 No Precipitation 06/15/2020 07:16 PM 06/15/2020 07:21 PM 0.000 0.000 0.000 0.000 0.000 Not Reported Not Reported
07/14/2020 02:23 PM 85.82 58.82 34.52 87.08 49.28 15.0 Not Reported 1.34 SW 0.45 SE 6.26 SW No 0.000 No Precipitation 06/15/2020 07:16 PM 06/15/2020 07:21 PM 0.000 0.000 0.000 0.000 0.000 Not Reported Not Reported
07/14/2020 02:38 PM 85.10 58.46 34.52 87.62 49.28 16.0 Not Reported 4.25 W 2.46 NW 5.37 W No 0.000 No Precipitation 06/15/2020 07:16 PM 06/15/2020 07:21 PM 0.000 0.000 0.000 0.000 0.000 Not Reported Not Reported
07/14/2020 02:53 PM 86.72 59.36 34.88 87.80 49.28 15.0 Not Reported 2.46 W 4.25 NW 9.84 NW No 0.000 No Precipitation 06/15/2020 07:16 PM 06/15/2020 07:21 PM 0.000 0.000 0.000 0.000 0.000 Not Reported Not Reported
07/14/2020 03:08 PM 86.54 59.00 34.16 87.98 49.28 15.0 Not Reported 3.13 S 8.95 W 8.95 W No 0.000 No Precipitation 06/15/2020 07:16 PM 06/15/2020 07:21 PM 0.000 0.000 0.000 0.000 0.000 Not Reported Not Reported
07/14/2020 03:23 PM 87.26 59.36 34.52 87.98 49.28 15.0 Not Reported 3.13 SW 4.25 SW 9.84 SE No 0.000 No Precipitation 06/15/2020 07:16 PM 06/15/2020 07:21 PM 0.000 0.000 0.000 0.000 0.000 Not Reported Not Reported
07/14/2020 03:38 PM 86.72 59.36 35.24 87.98 49.28 16.0 Not Reported 1.12 S 2.68 W 10.07 S No 0.000 No Precipitation 06/15/2020 07:16 PM 06/15/2020 07:21 PM 0.000 0.000 0.000 0.000 0.000 Not Reported Not Reported
07/14/2020 03:53 PM 88.34 60.26 35.96 88.34 49.28 15.0 Not Reported 6.04 S 5.82 S 8.50 SW No 0.000 No Precipitation 06/15/2020 07:16 PM 06/15/2020 07:21 PM 0.000 0.000 0.000 0.000 0.000 Not Reported Not Reported
07/14/2020 04:08 PM 86.72 59.00 34.34 89.60 49.28 15.0 Not Reported 4.03 W 0.00 NE 6.93 W No 0.000 No Precipitation 06/15/2020 07:16 PM 06/15/2020 07:21 PM 0.000 0.000 0.000 0.000 0.000 Not Reported Not Reported
07/14/2020 04:23 PM 88.16 59.90 35.42 89.60 49.28 15.0 Not Reported 3.13 S 5.59 N 5.59 N No 0.000 No Precipitation 06/15/2020 07:16 PM 06/15/2020 07:21 PM 0.000 0.000 0.000 0.000 0.000 Not Reported Not Reported
07/14/2020 04:39 PM 87.62 60.26 36.32 89.60 49.28 16.0 Not Reported 2.91 SE 2.01 SW 6.26 W No 0.000 No Precipitation 06/15/2020 07:16 PM 06/15/2020 07:21 PM 0.000 0.000 0.000 0.000 0.000 Not Reported Not Reported
07/14/2020 04:53 PM 88.70 60.44 36.50 89.60 49.28 15.0 Not Reported 7.16 NW 6.71 N 8.05 NW No 0.000 No Precipitation 06/15/2020 07:16 PM 06/15/2020 07:21 PM 0.000 0.000 0.000 0.000 0.000 Not Reported Not Reported
07/14/2020 05:08 PM 87.62 59.90 36.32 89.60 49.28 16.0 Not Reported 3.36 NE 2.24 NW 5.14 SE No 0.000 No Precipitation 06/15/2020 07:16 PM 06/15/2020 07:21 PM 0.000 0.000 0.000 0.000 0.000 Not Reported Not Reported
07/14/2020 05:23 PM 87.08 60.08 37.22 89.60 49.28 17.0 Not Reported 3.13 E 2.24 N 4.70 NE No 0.000 No Precipitation 06/15/2020 07:16 PM 06/15/2020 07:21 PM 0.000 0.000 0.000 0.000 0.000 Not Reported Not Reported
07/14/2020 05:38 PM 85.64 59.54 37.04 89.60 49.28 17.0 Not Reported 2.68 NW 3.36 NW 4.25 NW No 0.000 No Precipitation 06/15/2020 07:16 PM 06/15/2020 07:21 PM 0.000 0.000 0.000 0.000 0.000 Not Reported Not Reported
07/14/2020 05:53 PM 86.18 59.72 37.04 89.60 49.28 17.0 Not Reported 1.57 S 3.58 S 4.03 SE No 0.000 No Precipitation 06/15/2020 07:16 PM 06/15/2020 07:21 PM 0.000 0.000 0.000 0.000 0.000 Not Reported Not Reported
07/14/2020 06:08 PM 88.16 59.90 35.42 89.60 49.28 15.0 Not Reported 2.24 SE 0.22 SE 6.71 SE No 0.000 No Precipitation 06/15/2020 07:16 PM 06/15/2020 07:21 PM 0.000 0.000 0.000 0.000 0.000 Not Reported Not Reported
07/14/2020 06:23 PM 86.72 61.16 41.18 89.60 49.28 20.0 Not Reported 4.47 S 4.92 S 8.72 S No 0.000 No Precipitation 06/15/2020 07:16 PM 06/15/2020 07:21 PM 0.000 0.000 0.000 0.000 0.000 Not Reported Not Reported
07/14/2020 06:38 PM 84.74 61.16 43.16 89.60 49.28 23.0 Not Reported 5.59 SW 2.01 NE 9.17 SW No 0.000 No Precipitation 06/15/2020 07:16 PM 06/15/2020 07:21 PM 0.000 0.000 0.000 0.000 0.000 Not Reported Not Reported
07/14/2020 06:53 PM 84.56 61.34 44.06 89.60 49.28 24.0 Not Reported 4.47 SW 4.03 S 9.17 W No 0.000 No Precipitation 06/15/2020 07:16 PM 06/15/2020 07:21 PM 0.000 0.000 0.000 0.000 0.000 Not Reported Not Reported
07/14/2020 07:08 PM 82.58 60.80 44.24 89.60 49.28 25.0 Not Reported 5.82 W 2.24 SW 7.61 SW No 0.000 No Precipitation 06/15/2020 07:16 PM 06/15/2020 07:21 PM 0.000 0.000 0.000 0.000 0.000 Not Reported Not Reported
07/14/2020 07:23 PM 81.68 60.44 44.60 89.60 49.28 27.0 Not Reported 4.47 W 4.03 NW 7.38 W No 0.000 No Precipitation 06/15/2020 07:16 PM 06/15/2020 07:21 PM 0.000 0.000 0.000 0.000 0.000 Not Reported Not Reported
07/14/2020 07:38 PM 80.78 60.26 44.78 89.60 49.28 28.0 Not Reported 4.25 W 2.24 SW 6.93 W No 0.000 No Precipitation 06/15/2020 07:16 PM 06/15/2020 07:21 PM 0.000 0.000 0.000 0.000 0.000 Not Reported Not Reported
07/14/2020 07:53 PM 79.70 59.72 44.60 89.60 49.28 28.0 Not Reported 3.36 W 0.89 SW 6.93 SW No 0.000 No Precipitation 06/15/2020 07:16 PM 06/15/2020 07:21 PM 0.000 0.000 0.000 0.000 0.000 Not Reported Not Reported
07/14/2020 08:08 PM 78.98 59.36 44.24 89.60 49.28 29.0 Not Reported 2.68 W 2.91 W 8.28 NW No 0.000 No Precipitation 06/15/2020 07:16 PM 06/15/2020 07:21 PM 0.000 0.000 0.000 0.000 0.000 Not Reported Not Reported
07/14/2020 08:23 PM 78.08 59.00 44.24 89.60 49.28 30.0 Not Reported 5.14 W 2.24 W 6.49 W No 0.000 No Precipitation 06/15/2020 07:16 PM 06/15/2020 07:21 PM 0.000 0.000 0.000 0.000 0.000 Not Reported Not Reported
07/14/2020 08:39 PM 77.36 58.64 44.24 89.60 49.28 30.0 Not Reported 3.36 W 2.24 W 4.92 W No 0.000 No Precipitation 06/15/2020 07:16 PM 06/15/2020 07:21 PM 0.000 0.000 0.000 0.000 0.000 Not Reported Not Reported
07/14/2020 08:53 PM 76.10 58.28 44.24 89.60 49.28 31.0 Not Reported 3.13 SW 1.79 SW 5.82 SW No 0.000 No Precipitation 06/15/2020 07:16 PM 06/15/2020 07:21 PM 0.000 0.000 0.000 0.000 0.000 Not Reported Not Reported
07/14/2020 09:08 PM 75.56 58.10 44.24 89.60 49.28 32.0 Not Reported 1.34 S 1.34 W 5.82 NW No 0.000 No Precipitation 06/15/2020 07:16 PM 06/15/2020 07:21 PM 0.000 0.000 0.000 0.000 0.000 Not Reported Not Reported
07/14/2020 09:23 PM 74.30 57.38 44.06 89.60 49.28 33.0 Not Reported 2.46 W 3.36 SW 3.80 SW No 0.000 No Precipitation 06/15/2020 07:16 PM 06/15/2020 07:21 PM 0.000 0.000 0.000 0.000 0.000 Not Reported Not Reported
07/14/2020 09:39 PM 71.96 56.30 44.06 89.60 49.28 36.0 Not Reported 2.01 NW 1.57 SW 3.58 N No 0.000 No Precipitation 06/15/2020 07:16 PM 06/15/2020 07:21 PM 0.000 0.000 0.000 0.000 0.000 Not Reported Not Reported
07/14/2020 09:53 PM 68.90 55.22 43.52 89.60 49.28 39.0 Not Reported 1.79 N 1.79 NW 2.46 NW No 0.000 No Precipitation 06/15/2020 07:16 PM 06/15/2020 07:21 PM 0.000 0.000 0.000 0.000 0.000 Not Reported Not Reported
07/14/2020 10:08 PM 67.64 54.32 42.98 89.60 49.28 40.0 Not Reported 2.01 NW 1.12 NW 3.13 N No 0.000 No Precipitation 06/15/2020 07:16 PM 06/15/2020 07:21 PM 0.000 0.000 0.000 0.000 0.000 Not Reported Not Reported
07/14/2020 10:23 PM 66.38 53.24 41.72 89.60 49.28 40.0 Not Reported 2.46 N 1.34 NW 3.36 N No 0.000 No Precipitation 06/15/2020 07:16 PM 06/15/2020 07:21 PM 0.000 0.000 0.000 0.000 0.000 Not Reported Not Reported
07/14/2020 10:38 PM 65.30 53.06 42.08 89.60 49.28 42.0 Not Reported 0.67 W 0.22 W 1.34 W No 0.000 No Precipitation 06/15/2020 07:16 PM 06/15/2020 07:21 PM 0.000 0.000 0.000 0.000 0.000 Not Reported Not Reported
07/14/2020 10:53 PM 63.68 52.34 42.26 89.60 49.28 45.0 Not Reported 0.00 N 1.12 S 1.34 E No 0.000 No Precipitation 06/15/2020 07:16 PM 06/15/2020 07:21 PM 0.000 0.000 0.000 0.000 0.000 Not Reported Not Reported
07/14/2020 11:08 PM 63.68 51.80 40.82 89.60 49.28 43.0 Not Reported 1.34 NE 0.00 E 2.01 E No 0.000 No Precipitation 06/15/2020 07:16 PM 06/15/2020 07:21 PM 0.000 0.000 0.000 0.000 0.000 Not Reported Not Reported
07/14/2020 11:23 PM 61.88 50.90 40.28 89.60 49.28 44.0 Not Reported 0.89 NW 1.79 W 2.01 NW No 0.000 No Precipitation 06/15/2020 07:16 PM 06/15/2020 07:21 PM 0.000 0.000 0.000 0.000 0.000 Not Reported Not Reported
07/14/2020 11:38 PM 61.88 50.72 40.10 89.60 49.28 44.0 Not Reported 0.67 SW 0.67 SW 2.91 S No 0.000 No Precipitation 06/15/2020 07:16 PM 06/15/2020 07:21 PM 0.000 0.000 0.000 0.000 0.000 Not Reported Not Reported
07/14/2020 11:53 PM 61.70 50.72 40.28 89.60 49.28 45.0 Not Reported 0.67 NW 0.89 NW 2.01 S No 0.000 No Precipitation 06/15/2020 07:16 PM 06/15/2020 07:21 PM 0.000 0.000 0.000 0.000 0.000 Not Reported Not Reported